Jefferson, Louisiana
Current Conditions -  °F | °C
As of 1:53 AM on Wednesday 22 Oct 2014 (Local Time) from KMSY Reporting Station
Few Clouds Few Clouds  
Wind Chill: 64°   Ceiling: Unl
Heat Index: 64°   Visibility: 10mi
Dew Point: 57°   Wind: 6mph
Humidity: 78%   Direction: 50°NE
Pressure: 30.02"   Gusts: NA
Location:  29.96°N, 90.17°W
Report Text: KMSY 220653Z 05005KT 10SM FEW250 18/14 A3002 RMK AO2 SLP167 T01780139
Loading
Personal Weather Stations






























Interactive Weather Map
Tropical Storm Tracking
New forecast layout! Learn more

10-Day Weather Forecast

Advertisements
Track Severe Weather on mobile